Time;durP1;ratioP1;P1;durP2;ratioP2;P2;SDS_P1;SDS_P2;PMS_P1;PMS_P2;Temp;Humidity;BMP_temperature;BMP_pressure;BME280_temperature;BME280_humidity;BME280_pressure;Samples;Min_cycle;Max_cycle;Signal;HPM_P1;HPM_P2
2021/05/21 00:01:52;;;;;;;10.27;2.05;;;;;;;;;;5050924;28;20021;-79
2021/05/21 00:04:19;;;;;;;6.68;2.30;;;;;;;;;;5052948;28;20104;-79
2021/05/21 00:06:44;;;;;;;7.82;2.03;;;;;;;;;;5053063;28;20028;-79
2021/05/21 00:09:11;;;;;;;6.15;2.17;;;;;;;;;;5052387;28;20013;-79
2021/05/21 00:11:36;;;;;;;8.80;2.60;;;;;;;;;;5036296;28;20374;-79
2021/05/21 00:14:01;;;;;;;8.63;3.10;;;;;;;;;;5054377;28;20025;-79
2021/05/21 00:16:27;;;;;;;7.90;2.30;;;;;;;;;;5051077;28;20040;-78
2021/05/21 00:18:53;;;;;;;9.07;2.22;;;;;;;;;;5034210;28;20035;-78
2021/05/21 00:21:19;;;;;;;9.50;3.25;;;;;;;;;;5035319;28;20030;-79
2021/05/21 00:23:44;;;;;;;9.70;2.92;;;;;;;;;;5039481;28;20450;-79
2021/05/21 00:26:10;;;;;;;7.18;2.30;;;;;;;;;;5056166;28;20344;-79
2021/05/21 00:28:35;;;;;;;6.72;2.42;;;;;;;;;;5053063;28;20014;-79
2021/05/21 00:31:00;;;;;;;8.32;2.45;;;;;;;;;;5036792;28;20017;-79
2021/05/21 00:33:25;;;;;;;9.10;2.15;;;;;;;;;;5053808;28;20021;-79
2021/05/21 00:35:51;;;;;;;7.75;2.65;;;;;;;;;;5053898;28;20394;-79
2021/05/21 00:38:16;;;;;;;11.68;2.47;;;;;;;;;;5054177;28;20059;-79
2021/05/21 00:40:41;;;;;;;8.43;2.45;;;;;;;;;;5056166;28;20131;-79
2021/05/21 00:43:07;;;;;;;7.30;3.10;;;;;;;;;;5072471;28;20105;-79
2021/05/21 00:45:32;;;;;;;11.98;2.30;;;;;;;;;;5053484;28;20489;-79
2021/05/21 00:47:57;;;;;;;8.50;2.70;;;;;;;;;;5055236;28;20032;-79
2021/05/21 00:50:22;;;;;;;8.77;2.20;;;;;;;;;;5058646;28;20031;-79
2021/05/21 00:52:48;;;;;;;11.88;3.00;;;;;;;;;;5066707;28;20036;-79
2021/05/21 00:55:13;;;;;;;9.25;2.30;;;;;;;;;;5079518;28;20590;-79
2021/05/21 00:57:41;;;;;;;8.02;2.30;;;;;;;;;;5079884;28;20017;-80
2021/05/21 01:00:06;;;;;;;5.97;2.08;;;;;;;;;;5076917;28;20027;-79
2021/05/21 01:02:32;;;;;;;10.80;2.47;;;;;;;;;;5057220;28;20096;-79
2021/05/21 01:04:57;;;;;;;7.55;2.42;;;;;;;;;;5061350;28;20179;-80
2021/05/21 01:07:24;;;;;;;9.32;2.70;;;;;;;;;;5058103;28;20039;-79
2021/05/21 01:09:50;;;;;;;5.45;2.40;;;;;;;;;;5071684;28;20039;-79
2021/05/21 01:12:15;;;;;;;9.13;2.42;;;;;;;;;;5075632;28;20445;-78
2021/05/21 01:14:50;;;;;;;5.10;2.13;;;;;;;;;;5061707;28;20036;-79
2021/05/21 01:17:16;;;;;;;7.25;2.33;;;;;;;;;;5056017;28;20075;-79
2021/05/21 01:19:41;;;;;;;6.53;2.20;;;;;;;;;;5055151;28;20501;-79
2021/05/21 01:22:07;;;;;;;5.28;2.28;;;;;;;;;;5070963;28;20021;-80
2021/05/21 01:24:32;;;;;;;4.85;2.25;;;;;;;;;;5058430;28;20075;-79
2021/05/21 01:26:59;;;;;;;5.63;2.17;;;;;;;;;;5062597;28;20099;-79
2021/05/21 01:29:24;;;;;;;7.53;2.70;;;;;;;;;;5071770;28;20028;-79
2021/05/21 01:31:49;;;;;;;5.55;2.30;;;;;;;;;;5055643;28;20029;-79
2021/05/21 01:34:14;;;;;;;6.50;2.30;;;;;;;;;;5055412;28;20021;-79
2021/05/21 01:36:40;;;;;;;8.98;2.10;;;;;;;;;;5038741;28;20024;-79
2021/05/21 01:39:07;;;;;;;11.00;2.42;;;;;;;;;;5063394;28;20026;-79
2021/05/21 01:41:34;;;;;;;6.13;2.13;;;;;;;;;;5055866;28;20024;-79
2021/05/21 01:43:59;;;;;;;8.32;2.17;;;;;;;;;;5055403;28;20021;-78
2021/05/21 01:46:24;;;;;;;5.70;2.33;;;;;;;;;;5056269;28;20037;-79
2021/05/21 01:48:49;;;;;;;8.35;2.50;;;;;;;;;;5054255;28;20021;-79
2021/05/21 01:51:15;;;;;;;6.78;1.90;;;;;;;;;;5055593;28;20385;-78
2021/05/21 01:53:40;;;;;;;7.82;2.35;;;;;;;;;;5054687;28;20017;-79
2021/05/21 01:56:06;;;;;;;6.97;2.17;;;;;;;;;;5072214;28;20039;-79
2021/05/21 01:58:32;;;;;;;6.57;2.25;;;;;;;;;;5074638;28;20025;-79
2021/05/21 02:00:57;;;;;;;7.80;2.10;;;;;;;;;;5046668;28;20025;-79
2021/05/21 02:03:22;;;;;;;6.63;2.47;;;;;;;;;;5064412;28;20457;-79
2021/05/21 02:05:47;;;;;;;5.93;2.15;;;;;;;;;;5060989;28;20029;-79
2021/05/21 02:08:13;;;;;;;8.45;2.30;;;;;;;;;;5055466;28;20343;-79
2021/05/21 02:10:38;;;;;;;7.82;2.53;;;;;;;;;;5059417;28;20029;-79
2021/05/21 02:13:03;;;;;;;7.47;2.20;;;;;;;;;;5058427;28;20120;-79
2021/05/21 02:15:29;;;;;;;8.10;2.15;;;;;;;;;;5055637;28;20028;-79
2021/05/21 02:17:54;;;;;;;9.18;2.28;;;;;;;;;;5057634;28;20035;-79
2021/05/21 02:20:19;;;;;;;7.68;2.30;;;;;;;;;;5056130;28;20017;-79
2021/05/21 02:22:44;;;;;;;7.82;2.00;;;;;;;;;;5052047;28;20025;-78
2021/05/21 02:25:11;;;;;;;11.65;2.15;;;;;;;;;;5074555;28;20059;-79
2021/05/21 02:27:36;;;;;;;8.88;2.50;;;;;;;;;;5054168;28;20038;-79
2021/05/21 02:30:02;;;;;;;9.18;2.10;;;;;;;;;;5074959;28;20103;-79
2021/05/21 02:32:28;;;;;;;7.65;2.03;;;;;;;;;;5066898;28;20021;-79
2021/05/21 02:34:53;;;;;;;5.90;2.33;;;;;;;;;;5053689;28;20021;-79
2021/05/21 02:37:18;;;;;;;10.25;1.95;;;;;;;;;;5053797;28;20104;-79
2021/05/21 02:39:44;;;;;;;9.40;2.15;;;;;;;;;;5056184;28;20024;-79
2021/05/21 02:42:09;;;;;;;9.55;2.10;;;;;;;;;;5055193;28;20079;-80
2021/05/21 02:44:34;;;;;;;6.85;2.25;;;;;;;;;;5054591;28;20317;-79
2021/05/21 02:47:00;;;;;;;6.03;2.28;;;;;;;;;;5053756;28;20461;-79
2021/05/21 02:49:25;;;;;;;5.80;2.22;;;;;;;;;;5052943;28;20016;-79
2021/05/21 02:51:51;;;;;;;8.60;2.35;;;;;;;;;;5052509;28;20017;-79
2021/05/21 02:54:17;;;;;;;5.93;2.28;;;;;;;;;;5054327;28;20343;-79
2021/05/21 02:56:42;;;;;;;11.02;2.90;;;;;;;;;;5053966;28;20021;-79
2021/05/21 02:59:08;;;;;;;8.23;2.38;;;;;;;;;;5070807;28;20051;-79
2021/05/21 03:01:33;;;;;;;8.00;2.38;;;;;;;;;;5075152;28;20036;-79
2021/05/21 03:03:58;;;;;;;9.10;2.00;;;;;;;;;;5070780;28;20028;-79
2021/05/21 03:06:24;;;;;;;5.35;2.20;;;;;;;;;;5051775;28;20107;-79
2021/05/21 03:08:49;;;;;;;5.80;2.33;;;;;;;;;;5057352;28;20358;-79
2021/05/21 03:11:15;;;;;;;7.80;2.38;;;;;;;;;;5072422;28;20052;-79
2021/05/21 03:13:40;;;;;;;7.03;2.10;;;;;;;;;;5074481;28;20055;-79
2021/05/21 03:16:05;;;;;;;8.15;2.10;;;;;;;;;;5074054;28;20027;-78
2021/05/21 03:18:30;;;;;;;7.45;2.10;;;;;;;;;;5055567;28;20036;-79
2021/05/21 03:20:56;;;;;;;8.90;1.98;;;;;;;;;;5052593;28;20025;-79
2021/05/21 03:23:21;;;;;;;7.43;1.60;;;;;;;;;;5084936;28;20427;-79
2021/05/21 03:25:46;;;;;;;6.00;1.65;;;;;;;;;;5052785;28;20025;-79
2021/05/21 03:28:12;;;;;;;6.25;1.90;;;;;;;;;;5035877;28;20586;-78
2021/05/21 03:30:38;;;;;;;5.22;1.35;;;;;;;;;;5052528;28;20029;-79
2021/05/21 03:33:04;;;;;;;4.88;1.40;;;;;;;;;;5052460;28;20143;-79
2021/05/21 03:35:29;;;;;;;8.20;1.60;;;;;;;;;;5051799;28;20039;-79
2021/05/21 03:37:54;;;;;;;5.63;1.80;;;;;;;;;;5069434;28;20025;-79
2021/05/21 03:40:20;;;;;;;5.70;1.60;;;;;;;;;;5072751;28;20032;-79
2021/05/21 03:42:45;;;;;;;6.68;2.33;;;;;;;;;;5066235;28;20031;-79
2021/05/21 03:45:10;;;;;;;4.45;1.60;;;;;;;;;;5036439;28;20442;-79
2021/05/21 03:47:36;;;;;;;6.60;1.70;;;;;;;;;;5051194;28;20020;-79
2021/05/21 03:50:01;;;;;;;5.82;1.58;;;;;;;;;;5052219;28;20044;-79
2021/05/21 03:52:27;;;;;;;5.47;1.48;;;;;;;;;;5051802;28;20049;-79
2021/05/21 03:54:52;;;;;;;5.35;1.20;;;;;;;;;;5052311;28;20021;-79
2021/05/21 03:57:20;;;;;;;5.05;1.42;;;;;;;;;;5066485;28;20337;-81
2021/05/21 03:59:45;;;;;;;7.40;1.50;;;;;;;;;;5074888;28;20021;-78
2021/05/21 04:02:11;;;;;;;5.78;1.52;;;;;;;;;;5069597;28;20411;-78
2021/05/21 04:04:37;;;;;;;5.88;1.38;;;;;;;;;;5073414;28;20020;-79
2021/05/21 04:07:02;;;;;;;7.18;1.40;;;;;;;;;;5064375;28;20073;-79
2021/05/21 04:09:30;;;;;;;4.90;1.30;;;;;;;;;;5053489;28;20727;-78
2021/05/21 04:11:55;;;;;;;3.33;1.30;;;;;;;;;;5024807;28;794353;-78
2021/05/21 04:14:20;;;;;;;5.07;1.60;;;;;;;;;;5049704;28;20470;-79
2021/05/21 04:16:46;;;;;;;5.07;1.90;;;;;;;;;;5051835;28;20398;-79
2021/05/21 04:19:11;;;;;;;5.63;1.30;;;;;;;;;;5058072;28;20042;-80
2021/05/21 04:21:36;;;;;;;7.28;1.30;;;;;;;;;;5062806;28;20475;-81
2021/05/21 04:24:02;;;;;;;3.47;1.25;;;;;;;;;;5051151;28;20040;-80
2021/05/21 04:26:27;;;;;;;4.57;1.30;;;;;;;;;;5050443;28;20029;-80
2021/05/21 04:28:52;;;;;;;6.35;1.40;;;;;;;;;;5052133;28;20024;-79
2021/05/21 04:31:18;;;;;;;6.38;1.77;;;;;;;;;;5050389;28;20029;-79
2021/05/21 04:33:43;;;;;;;6.15;1.40;;;;;;;;;;5053441;28;20021;-79
2021/05/21 04:36:09;;;;;;;4.53;1.20;;;;;;;;;;5054294;28;20024;-79
2021/05/21 04:38:34;;;;;;;6.68;1.30;;;;;;;;;;5056607;28;20033;-79
2021/05/21 04:40:59;;;;;;;7.50;1.40;;;;;;;;;;5063630;28;20025;-80
2021/05/21 04:43:26;;;;;;;4.57;1.10;;;;;;;;;;5062495;28;20025;-81
2021/05/21 04:45:52;;;;;;;5.18;1.10;;;;;;;;;;5062857;28;20404;-81
2021/05/21 04:48:17;;;;;;;3.97;1.00;;;;;;;;;;5061042;28;20088;-80
2021/05/21 04:50:44;;;;;;;4.03;1.20;;;;;;;;;;5058945;28;20375;-80
2021/05/21 04:53:09;;;;;;;6.45;1.35;;;;;;;;;;5061073;28;20075;-80
2021/05/21 04:55:34;;;;;;;4.53;1.20;;;;;;;;;;5056481;28;20025;-79
2021/05/21 04:57:59;;;;;;;2.38;1.05;;;;;;;;;;5059650;28;20037;-80
2021/05/21 05:00:25;;;;;;;5.75;1.15;;;;;;;;;;5057539;28;20021;-79
2021/05/21 05:02:50;;;;;;;4.95;1.23;;;;;;;;;;5055584;28;20021;-80
2021/05/21 05:05:15;;;;;;;2.67;1.20;;;;;;;;;;5047702;28;20030;-79
2021/05/21 05:07:40;;;;;;;2.78;1.20;;;;;;;;;;5057389;28;20036;-79
2021/05/21 05:10:06;;;;;;;6.10;1.13;;;;;;;;;;5058586;28;20021;-80
2021/05/21 05:12:31;;;;;;;2.88;1.30;;;;;;;;;;5057443;28;20522;-80
2021/05/21 05:14:57;;;;;;;3.70;1.73;;;;;;;;;;5056921;28;20013;-79
2021/05/21 05:17:23;;;;;;;3.08;1.60;;;;;;;;;;5057149;28;20032;-80
2021/05/21 05:19:48;;;;;;;5.43;1.40;;;;;;;;;;5059875;28;20307;-79
2021/05/21 05:22:15;;;;;;;3.35;1.77;;;;;;;;;;5039733;28;20056;-80
2021/05/21 05:24:40;;;;;;;3.78;1.70;;;;;;;;;;5056193;28;20028;-80
2021/05/21 05:27:06;;;;;;;5.25;1.90;;;;;;;;;;5052240;28;20033;-79
2021/05/21 05:29:34;;;;;;;3.88;1.75;;;;;;;;;;5052521;28;20106;-79
2021/05/21 05:32:01;;;;;;;3.40;1.73;;;;;;;;;;5052862;28;20029;-79
2021/05/21 05:34:27;;;;;;;2.97;1.52;;;;;;;;;;5059272;28;20021;-79
2021/05/21 05:36:54;;;;;;;4.93;1.95;;;;;;;;;;5052310;28;20037;-79
2021/05/21 05:39:21;;;;;;;3.38;1.75;;;;;;;;;;5053321;28;20040;-80
2021/05/21 05:41:49;;;;;;;4.78;1.58;;;;;;;;;;5051636;28;20029;-80
2021/05/21 05:44:15;;;;;;;6.55;1.80;;;;;;;;;;5049943;28;20022;-78
2021/05/21 05:46:40;;;;;;;4.28;1.60;;;;;;;;;;5055418;28;20040;-80
2021/05/21 05:49:06;;;;;;;2.53;1.63;;;;;;;;;;5053194;28;20127;-80
2021/05/21 05:51:31;;;;;;;2.45;1.45;;;;;;;;;;5044411;28;20025;-79
2021/05/21 05:53:56;;;;;;;2.90;1.25;;;;;;;;;;5046290;28;20025;-79
2021/05/21 05:56:21;;;;;;;2.33;1.30;;;;;;;;;;5045424;28;20028;-79
2021/05/21 05:58:47;;;;;;;2.90;1.55;;;;;;;;;;5052376;28;20024;-79
2021/05/21 06:01:12;;;;;;;3.47;1.40;;;;;;;;;;5056671;28;20462;-81
2021/05/21 06:03:38;;;;;;;5.47;1.60;;;;;;;;;;5057903;28;20140;-79
2021/05/21 06:06:03;;;;;;;3.42;1.60;;;;;;;;;;5061873;28;20536;-79
2021/05/21 06:08:28;;;;;;;4.47;1.77;;;;;;;;;;5057825;28;20108;-78
2021/05/21 06:10:54;;;;;;;4.15;1.70;;;;;;;;;;5061580;28;20072;-80
2021/05/21 06:13:24;;;;;;;3.63;1.98;;;;;;;;;;5069272;28;20036;-81
2021/05/21 06:15:49;;;;;;;4.93;2.00;;;;;;;;;;5066129;28;20082;-80
2021/05/21 06:18:15;;;;;;;3.35;1.77;;;;;;;;;;5059934;28;20381;-80
2021/05/21 06:20:40;;;;;;;3.05;1.80;;;;;;;;;;5070382;28;20039;-80
2021/05/21 06:23:05;;;;;;;3.25;1.70;;;;;;;;;;5057396;28;20429;-84
2021/05/21 06:25:54;;;;;;;4.80;1.98;;;;;;;;;;5071291;28;20013;-83
2021/05/21 06:28:22;;;;;;;5.13;1.95;;;;;;;;;;5063340;28;20581;-80
2021/05/21 06:30:48;;;;;;;4.72;2.15;;;;;;;;;;5058488;28;20048;-79
2021/05/21 06:33:13;;;;;;;5.47;1.88;;;;;;;;;;5054135;28;20064;-79
2021/05/21 06:35:38;;;;;;;3.42;1.80;;;;;;;;;;5059003;28;20438;-79
2021/05/21 06:38:04;;;;;;;3.75;1.58;;;;;;;;;;5056483;28;20109;-80
2021/05/21 06:40:29;;;;;;;5.00;1.83;;;;;;;;;;5057290;28;20013;-80
2021/05/21 06:42:55;;;;;;;4.30;2.00;;;;;;;;;;5059573;28;21354;-80
2021/05/21 06:45:20;;;;;;;4.65;1.90;;;;;;;;;;5064881;28;20017;-79
2021/05/21 06:47:45;;;;;;;5.63;1.88;;;;;;;;;;5057905;28;20080;-78
2021/05/21 06:50:11;;;;;;;4.72;1.77;;;;;;;;;;5058460;28;20483;-79
2021/05/21 06:52:36;;;;;;;5.18;1.90;;;;;;;;;;5058021;28;20021;-81
2021/05/21 06:55:03;;;;;;;3.95;1.70;;;;;;;;;;5056919;28;20017;-79
2021/05/21 06:57:29;;;;;;;5.97;1.85;;;;;;;;;;5069858;28;20033;-80
2021/05/21 06:59:54;;;;;;;4.07;1.73;;;;;;;;;;5062464;28;20104;-79
2021/05/21 07:02:20;;;;;;;3.97;1.90;;;;;;;;;;5055951;28;20051;-79
2021/05/21 07:04:45;;;;;;;5.30;2.03;;;;;;;;;;5049583;28;20029;-79
2021/05/21 07:07:10;;;;;;;3.85;1.80;;;;;;;;;;5056807;28;20511;-78
2021/05/21 07:09:36;;;;;;;4.47;2.00;;;;;;;;;;5052588;28;20021;-79
2021/05/21 07:12:01;;;;;;;4.65;2.05;;;;;;;;;;5050511;28;20143;-79
2021/05/21 07:14:26;;;;;;;3.33;1.80;;;;;;;;;;5049065;28;20080;-78
2021/05/21 07:16:51;;;;;;;5.60;1.90;;;;;;;;;;5049795;28;20117;-78
2021/05/21 07:19:18;;;;;;;3.72;1.67;;;;;;;;;;5050638;28;20047;-78
2021/05/21 07:21:44;;;;;;;4.15;2.10;;;;;;;;;;5030790;28;20060;-78
2021/05/21 07:24:09;;;;;;;4.22;2.00;;;;;;;;;;5056030;28;20472;-78
2021/05/21 07:26:35;;;;;;;3.40;1.80;;;;;;;;;;5053019;28;20108;-78
2021/05/21 07:29:01;;;;;;;5.05;1.85;;;;;;;;;;5056978;28;20017;-78
2021/05/21 07:31:27;;;;;;;5.60;1.83;;;;;;;;;;5047246;28;20025;-78
2021/05/21 07:33:56;;;;;;;5.38;1.98;;;;;;;;;;5065447;28;20063;-79
2021/05/21 07:36:23;;;;;;;4.88;2.15;;;;;;;;;;5047626;28;20013;-78
2021/05/21 07:38:48;;;;;;;4.45;2.00;;;;;;;;;;5056338;28;20040;-78
2021/05/21 07:41:14;;;;;;;4.38;2.10;;;;;;;;;;5052405;28;20102;-78
2021/05/21 07:43:40;;;;;;;5.20;2.30;;;;;;;;;;5049059;28;20025;-79
2021/05/21 07:46:05;;;;;;;2.40;1.70;;;;;;;;;;5032478;28;20033;-78
2021/05/21 07:48:30;;;;;;;4.97;2.00;;;;;;;;;;5048756;28;20025;-78
2021/05/21 07:50:56;;;;;;;2.50;2.05;;;;;;;;;;5033393;28;20025;-78
2021/05/21 07:53:22;;;;;;;4.22;1.90;;;;;;;;;;5070085;28;20021;-79
2021/05/21 07:55:48;;;;;;;3.25;1.88;;;;;;;;;;5073303;28;20025;-78
2021/05/21 07:58:14;;;;;;;5.10;2.03;;;;;;;;;;5055811;28;20021;-78
2021/05/21 08:00:39;;;;;;;3.03;2.10;;;;;;;;;;5053248;28;20028;-78
2021/05/21 08:03:05;;;;;;;2.60;1.90;;;;;;;;;;5053144;28;20024;-78
2021/05/21 08:05:32;;;;;;;4.72;1.98;;;;;;;;;;5072429;28;20020;-78
2021/05/21 08:07:59;;;;;;;4.30;1.88;;;;;;;;;;5068721;28;20031;-78
2021/05/21 08:10:25;;;;;;;4.68;2.20;;;;;;;;;;5070183;28;20017;-78
2021/05/21 08:12:50;;;;;;;6.45;2.80;;;;;;;;;;5056705;28;20016;-78
2021/05/21 08:15:16;;;;;;;5.78;2.22;;;;;;;;;;5063088;28;20032;-79
2021/05/21 08:17:41;;;;;;;3.90;1.95;;;;;;;;;;5060954;28;20036;-79
2021/05/21 08:20:08;;;;;;;6.22;2.10;;;;;;;;;;5068570;28;20024;-78
2021/05/21 08:22:33;;;;;;;3.28;2.13;;;;;;;;;;5055046;28;20041;-78
2021/05/21 08:24:58;;;;;;;4.57;2.40;;;;;;;;;;5058623;28;20028;-78
2021/05/21 08:27:24;;;;;;;2.72;1.85;;;;;;;;;;5036506;28;20029;-78
2021/05/21 08:29:49;;;;;;;3.72;2.00;;;;;;;;;;5060558;28;20023;-78
2021/05/21 08:32:14;;;;;;;4.82;2.10;;;;;;;;;;5071413;28;20115;-78
2021/05/21 08:34:40;;;;;;;2.47;1.73;;;;;;;;;;5060942;28;20017;-78
2021/05/21 08:37:05;;;;;;;4.25;1.85;;;;;;;;;;5034367;28;20090;-78
2021/05/21 08:39:30;;;;;;;4.22;1.95;;;;;;;;;;5049346;28;20041;-79
2021/05/21 08:41:57;;;;;;;3.17;1.60;;;;;;;;;;5037586;28;20099;-78
2021/05/21 08:44:24;;;;;;;4.68;1.50;;;;;;;;;;5052697;28;20086;-79
2021/05/21 08:46:50;;;;;;;4.50;1.92;;;;;;;;;;5051146;28;20393;-79
2021/05/21 08:49:16;;;;;;;4.35;2.22;;;;;;;;;;5055767;28;20358;-79
2021/05/21 08:51:41;;;;;;;3.42;1.50;;;;;;;;;;5059678;28;20100;-78
2021/05/21 08:54:08;;;;;;;3.92;1.70;;;;;;;;;;5050840;28;20021;-78
2021/05/21 08:56:33;;;;;;;4.13;1.65;;;;;;;;;;5053501;28;20035;-79
2021/05/21 08:58:58;;;;;;;3.28;1.80;;;;;;;;;;5051744;28;20025;-78
2021/05/21 09:01:26;;;;;;;3.42;1.75;;;;;;;;;;5051489;28;20040;-79
2021/05/21 09:03:57;;;;;;;4.03;1.85;;;;;;;;;;5048927;28;20438;-79
2021/05/21 09:06:22;;;;;;;4.75;1.90;;;;;;;;;;5054990;28;20025;-79
2021/05/21 09:08:49;;;;;;;4.38;1.75;;;;;;;;;;5038202;28;20821;-79
2021/05/21 09:11:34;;;;;;;3.60;1.60;;;;;;;;;;5060853;28;20488;-78
2021/05/21 09:14:02;;;;;;;7.80;1.90;;;;;;;;;;5052961;28;20013;-79
2021/05/21 09:16:29;;;;;;;3.60;1.90;;;;;;;;;;5054674;28;20021;-78
2021/05/21 09:19:08;;;;;;;5.45;1.88;;;;;;;;;;5035954;28;20029;-79
2021/05/21 09:21:51;;;;;;;7.38;2.00;;;;;;;;;;5055670;28;20025;-79
2021/05/21 09:24:18;;;;;;;5.60;2.10;;;;;;;;;;5064657;28;20062;-80
2021/05/21 09:26:45;;;;;;;5.80;2.28;;;;;;;;;;5047547;28;20064;-79
2021/05/21 09:29:12;;;;;;;4.90;2.03;;;;;;;;;;5062709;28;20060;-80
2021/05/21 09:31:45;;;;;;;3.67;2.00;;;;;;;;;;5063139;28;20052;-79
2021/05/21 09:34:11;;;;;;;3.08;1.83;;;;;;;;;;5060631;28;20029;-81
2021/05/21 09:36:37;;;;;;;5.82;2.28;;;;;;;;;;5060207;28;20033;-78
2021/05/21 09:39:07;;;;;;;5.50;2.20;;;;;;;;;;5071055;28;20044;-81
2021/05/21 09:41:43;;;;;;;5.63;2.10;;;;;;;;;;5065431;28;20019;-81
2021/05/21 09:44:09;;;;;;;5.38;2.20;;;;;;;;;;5066157;28;20028;-79
2021/05/21 09:46:38;;;;;;;6.32;2.58;;;;;;;;;;5060661;28;20028;-80
2021/05/21 09:49:22;;;;;;;8.43;2.50;;;;;;;;;;5077637;28;20024;-80
2021/05/21 09:51:51;;;;;;;5.20;2.20;;;;;;;;;;5056690;28;20339;-79
2021/05/21 09:54:16;;;;;;;6.45;2.60;;;;;;;;;;5063019;28;20398;-81
2021/05/21 09:56:44;;;;;;;4.72;2.40;;;;;;;;;;5061468;28;20017;-79
2021/05/21 09:59:10;;;;;;;5.30;2.47;;;;;;;;;;5043528;28;20017;-81
2021/05/21 10:01:37;;;;;;;5.65;2.53;;;;;;;;;;5061996;28;20027;-79
2021/05/21 10:04:04;;;;;;;5.25;2.58;;;;;;;;;;5061683;28;20025;-78
2021/05/21 10:06:30;;;;;;;6.10;2.08;;;;;;;;;;5062331;28;20028;-79
2021/05/21 10:08:58;;;;;;;3.65;2.28;;;;;;;;;;5061837;28;20025;-80
2021/05/21 10:11:24;;;;;;;6.63;2.38;;;;;;;;;;5058523;28;20049;-80
2021/05/21 10:13:49;;;;;;;4.60;1.98;;;;;;;;;;5052403;28;20072;-79
2021/05/21 10:16:15;;;;;;;5.10;1.90;;;;;;;;;;5050036;28;20039;-79
2021/05/21 10:18:45;;;;;;;4.15;1.90;;;;;;;;;;5037789;28;20347;-79
2021/05/21 10:21:10;;;;;;;3.45;1.85;;;;;;;;;;5054552;28;20025;-79
2021/05/21 10:23:44;;;;;;;5.22;2.00;;;;;;;;;;5056437;28;20028;-80
2021/05/21 10:26:12;;;;;;;4.30;1.93;;;;;;;;;;5055010;28;20494;-78
2021/05/21 10:28:38;;;;;;;5.40;1.90;;;;;;;;;;5051431;28;20344;-79
2021/05/21 10:31:03;;;;;;;4.80;1.73;;;;;;;;;;5043448;28;20021;-82
2021/05/21 10:33:33;;;;;;;4.20;1.70;;;;;;;;;;5038696;28;20335;-79
2021/05/21 10:36:17;;;;;;;4.55;1.70;;;;;;;;;;5055261;28;20047;-79
2021/05/21 10:39:00;;;;;;;3.10;1.77;;;;;;;;;;5054881;28;20422;-81
2021/05/21 10:41:26;;;;;;;3.85;1.85;;;;;;;;;;5051932;28;20032;-79
2021/05/21 10:43:52;;;;;;;10.93;1.88;;;;;;;;;;5052469;28;20033;-79
2021/05/21 10:46:18;;;;;;;5.93;1.92;;;;;;;;;;5050664;28;20029;-78
2021/05/21 10:48:57;;;;;;;5.57;2.20;;;;;;;;;;5059118;28;20056;-81
2021/05/21 10:51:23;;;;;;;4.75;1.60;;;;;;;;;;5052746;28;20066;-78
2021/05/21 10:54:08;;;;;;;3.63;1.70;;;;;;;;;;5052905;28;20051;-77
2021/05/21 10:56:44;;;;;;;5.22;1.70;;;;;;;;;;5050501;28;20024;-78
2021/05/21 10:59:10;;;;;;;4.07;1.55;;;;;;;;;;5054874;28;20663;-78
2021/05/21 11:01:53;;;;;;;4.45;1.98;;;;;;;;;;5058195;28;20066;-78
2021/05/21 11:04:28;;;;;;;3.58;1.45;;;;;;;;;;5051265;28;20087;-77
2021/05/21 11:06:54;;;;;;;3.83;1.60;;;;;;;;;;5053296;28;20081;-77
2021/05/21 11:09:21;;;;;;;2.60;1.50;;;;;;;;;;5050321;28;20040;-78
2021/05/21 11:11:54;;;;;;;4.05;1.80;;;;;;;;;;5051090;28;20063;-77
2021/05/21 11:14:20;;;;;;;3.53;1.70;;;;;;;;;;5045478;28;20078;-77
2021/05/21 11:16:53;;;;;;;2.42;1.50;;;;;;;;;;5046912;28;20392;-77
2021/05/21 11:19:19;;;;;;;4.80;1.60;;;;;;;;;;5049832;28;20446;-77
2021/05/21 11:21:49;;;;;;;4.13;1.58;;;;;;;;;;5052408;28;20025;-77
2021/05/21 11:24:14;;;;;;;3.80;1.70;;;;;;;;;;5051310;28;20037;-77
2021/05/21 11:26:42;;;;;;;5.28;1.40;;;;;;;;;;5055419;28;20423;-78
2021/05/21 11:29:08;;;;;;;6.93;1.50;;;;;;;;;;5045210;28;20048;-79
2021/05/21 11:31:34;;;;;;;4.22;1.52;;;;;;;;;;5043613;28;20034;-78
2021/05/21 11:34:00;;;;;;;3.15;1.63;;;;;;;;;;5051403;28;20469;-78
2021/05/21 11:36:26;;;;;;;2.20;1.55;;;;;;;;;;5055058;28;20582;-78
2021/05/21 11:38:52;;;;;;;3.25;1.65;;;;;;;;;;5055910;28;20032;-78
2021/05/21 11:41:21;;;;;;;4.00;1.60;;;;;;;;;;5050605;28;20356;-78
2021/05/21 11:43:48;;;;;;;4.78;1.65;;;;;;;;;;5054058;28;20108;-78
2021/05/21 11:46:13;;;;;;;3.83;1.50;;;;;;;;;;5058023;28;20027;-78
2021/05/21 11:48:39;;;;;;;3.80;1.60;;;;;;;;;;5048835;28;20029;-78
2021/05/21 11:51:13;;;;;;;3.92;1.30;;;;;;;;;;5052797;28;20016;-77
2021/05/21 11:53:45;;;;;;;2.88;1.23;;;;;;;;;;5049019;28;20191;-78
2021/05/21 11:56:10;;;;;;;2.53;1.60;;;;;;;;;;5053120;28;20039;-78
2021/05/21 11:58:37;;;;;;;1.90;1.38;;;;;;;;;;5056495;28;20020;-78
2021/05/21 12:01:03;;;;;;;3.55;1.38;;;;;;;;;;5054925;28;20049;-77
2021/05/21 12:03:32;;;;;;;4.82;1.90;;;;;;;;;;5050307;28;20060;-77
2021/05/21 12:05:58;;;;;;;2.38;1.42;;;;;;;;;;5051593;28;20021;-77
2021/05/21 12:08:25;;;;;;;2.42;1.70;;;;;;;;;;5049397;28;20082;-78
2021/05/21 12:10:55;;;;;;;4.68;1.85;;;;;;;;;;5050550;28;20037;-77
2021/05/21 12:13:20;;;;;;;5.03;2.00;;;;;;;;;;5054035;28;20039;-78
2021/05/21 12:15:47;;;;;;;3.38;1.80;;;;;;;;;;5051611;28;20354;-77
2021/05/21 12:18:12;;;;;;;3.70;1.88;;;;;;;;;;5049260;28;20422;-78
2021/05/21 12:20:37;;;;;;;5.00;2.13;;;;;;;;;;5056884;28;20057;-78
2021/05/21 12:23:05;;;;;;;5.50;2.30;;;;;;;;;;5052922;28;20047;-78
2021/05/21 12:25:30;;;;;;;3.85;2.00;;;;;;;;;;5051739;28;20028;-78
2021/05/21 12:27:58;;;;;;;2.67;1.90;;;;;;;;;;5051123;28;20021;-77
2021/05/21 12:30:23;;;;;;;3.28;1.70;;;;;;;;;;5052081;28;20100;-78
2021/05/21 12:32:49;;;;;;;3.20;2.00;;;;;;;;;;5052446;28;20103;-78
2021/05/21 12:35:16;;;;;;;3.10;2.10;;;;;;;;;;5050910;28;20087;-77
2021/05/21 12:37:48;;;;;;;3.42;2.08;;;;;;;;;;5050151;28;20018;-78
2021/05/21 12:40:14;;;;;;;3.10;1.90;;;;;;;;;;5051902;28;20640;-80
2021/05/21 12:42:46;;;;;;;4.85;2.20;;;;;;;;;;5051762;28;20043;-79
2021/05/21 12:45:12;;;;;;;1.80;1.55;;;;;;;;;;5049642;28;20013;-78
2021/05/21 12:47:43;;;;;;;2.92;1.90;;;;;;;;;;5052050;28;20060;-78
2021/05/21 12:50:10;;;;;;;2.95;2.00;;;;;;;;;;5052240;28;20024;-78
2021/05/21 12:52:51;;;;;;;5.22;2.08;;;;;;;;;;5051533;28;20409;-78
2021/05/21 12:55:16;;;;;;;3.25;2.28;;;;;;;;;;5047175;28;20108;-78
2021/05/21 12:57:43;;;;;;;6.38;2.40;;;;;;;;;;5034229;28;20116;-78
2021/05/21 13:00:08;;;;;;;3.38;1.98;;;;;;;;;;5044035;28;20021;-77
2021/05/21 13:02:36;;;;;;;3.65;1.98;;;;;;;;;;5054722;28;20036;-78
2021/05/21 13:05:08;;;;;;;3.25;2.00;;;;;;;;;;5066699;28;20135;-78
2021/05/21 13:07:33;;;;;;;3.08;2.47;;;;;;;;;;5045368;28;20035;-79
2021/05/21 13:10:00;;;;;;;4.18;2.85;;;;;;;;;;5055644;28;20099;-78
2021/05/21 13:12:32;;;;;;;3.90;2.53;;;;;;;;;;5063111;28;20036;-78
2021/05/21 13:14:58;;;;;;;3.63;2.45;;;;;;;;;;5051799;28;20037;-78
2021/05/21 13:17:29;;;;;;;3.15;2.65;;;;;;;;;;5046787;28;20017;-78
2021/05/21 13:19:58;;;;;;;3.17;2.58;;;;;;;;;;5054330;28;20382;-78
2021/05/21 13:22:24;;;;;;;3.90;2.42;;;;;;;;;;5052263;28;20009;-78
2021/05/21 13:24:50;;;;;;;3.05;2.40;;;;;;;;;;5055706;28;20481;-77
2021/05/21 13:27:19;;;;;;;3.38;2.50;;;;;;;;;;5051306;28;20473;-78
2021/05/21 13:29:45;;;;;;;4.15;2.28;;;;;;;;;;5050213;28;20028;-78
2021/05/21 13:32:10;;;;;;;5.60;2.40;;;;;;;;;;5056136;28;20013;-78
2021/05/21 13:34:35;;;;;;;3.45;2.30;;;;;;;;;;5055622;28;20092;-79
2021/05/21 13:37:00;;;;;;;4.80;2.65;;;;;;;;;;5038085;28;20037;-79
2021/05/21 13:39:26;;;;;;;3.78;2.70;;;;;;;;;;5049040;28;20355;-78
2021/05/21 13:41:51;;;;;;;3.90;2.90;;;;;;;;;;5056271;28;20438;-78
2021/05/21 13:44:16;;;;;;;4.75;3.28;;;;;;;;;;5055260;28;20048;-78
2021/05/21 13:46:42;;;;;;;5.65;3.28;;;;;;;;;;5052019;28;20043;-78
2021/05/21 13:49:07;;;;;;;6.40;3.40;;;;;;;;;;5034166;28;20134;-78
2021/05/21 13:51:32;;;;;;;5.10;2.97;;;;;;;;;;5052918;28;20021;-78
2021/05/21 13:53:58;;;;;;;4.70;3.10;;;;;;;;;;5053292;28;20048;-79
2021/05/21 13:56:23;;;;;;;5.50;2.65;;;;;;;;;;5054729;28;20102;-80
2021/05/21 13:58:48;;;;;;;5.32;2.95;;;;;;;;;;5052275;28;20032;-77
2021/05/21 14:01:13;;;;;;;3.95;2.90;;;;;;;;;;5054237;28;20033;-78
2021/05/21 14:03:39;;;;;;;5.22;2.90;;;;;;;;;;5054482;28;20122;-78
2021/05/21 14:06:05;;;;;;;6.10;2.42;;;;;;;;;;5056144;28;20474;-79
2021/05/21 14:08:31;;;;;;;4.75;2.92;;;;;;;;;;5038460;28;20521;-79
2021/05/21 14:10:56;;;;;;;4.60;3.00;;;;;;;;;;5058845;28;20057;-79
2021/05/21 14:13:22;;;;;;;4.22;3.10;;;;;;;;;;5058556;28;20332;-78
2021/05/21 14:15:48;;;;;;;4.93;3.28;;;;;;;;;;5058895;28;20044;-79
2021/05/21 14:18:13;;;;;;;3.60;3.22;;;;;;;;;;5057183;28;20447;-78
2021/05/21 14:20:38;;;;;;;6.32;3.10;;;;;;;;;;5054261;28;20055;-78
2021/05/21 14:23:04;;;;;;;7.40;3.30;;;;;;;;;;5050194;28;20092;-78
2021/05/21 14:25:34;;;;;;;4.38;2.88;;;;;;;;;;5052078;28;20028;-78
2021/05/21 14:28:00;;;;;;;3.67;2.83;;;;;;;;;;5055176;28;20028;-78
2021/05/21 14:30:25;;;;;;;5.93;2.42;;;;;;;;;;5056219;28;20140;-78
2021/05/21 14:32:52;;;;;;;7.07;2.35;;;;;;;;;;5056482;28;20346;-78
2021/05/21 14:35:18;;;;;;;2.40;1.20;;;;;;;;;;5058753;28;20021;-80
2021/05/21 14:37:44;;;;;;;1.77;0.90;;;;;;;;;;5051423;28;20025;-79
2021/05/21 14:40:10;;;;;;;2.90;0.85;;;;;;;;;;5052973;28;20033;-78